sensor_id;sensor_type;location;lat;lon;timestamp;P1;durP1;ratioP1;P2;durP2;ratioP2
1721;SDS011;858;53.190;8.596;2022-11-03T00:00:00;9.10;;;3.67;;
1721;SDS011;858;53.190;8.596;2022-11-03T00:02:27;15.23;;;3.85;;
1721;SDS011;858;53.190;8.596;2022-11-03T00:04:53;10.40;;;3.30;;
1721;SDS011;858;53.190;8.596;2022-11-03T00:07:20;12.10;;;3.90;;
1721;SDS011;858;53.190;8.596;2022-11-03T00:09:46;8.32;;;3.40;;
1721;SDS011;858;53.190;8.596;2022-11-03T00:12:12;11.02;;;3.47;;
1721;SDS011;858;53.190;8.596;2022-11-03T00:14:39;11.18;;;3.53;;
1721;SDS011;858;53.190;8.596;2022-11-03T00:17:07;7.70;;;3.13;;
1721;SDS011;858;53.190;8.596;2022-11-03T00:19:33;8.52;;;3.30;;
1721;SDS011;858;53.190;8.596;2022-11-03T00:21:59;11.98;;;3.40;;
1721;SDS011;858;53.190;8.596;2022-11-03T00:24:26;13.18;;;3.40;;
1721;SDS011;858;53.190;8.596;2022-11-03T00:26:55;9.65;;;3.20;;
1721;SDS011;858;53.190;8.596;2022-11-03T00:29:22;9.18;;;3.60;;
1721;SDS011;858;53.190;8.596;2022-11-03T00:31:49;13.80;;;3.70;;
1721;SDS011;858;53.190;8.596;2022-11-03T00:34:16;10.20;;;3.30;;
1721;SDS011;858;53.190;8.596;2022-11-03T00:36:43;10.27;;;3.30;;
1721;SDS011;858;53.190;8.596;2022-11-03T00:39:10;9.30;;;3.30;;
1721;SDS011;858;53.190;8.596;2022-11-03T00:41:36;14.57;;;3.23;;
1721;SDS011;858;53.190;8.596;2022-11-03T00:44:03;8.75;;;3.42;;
1721;SDS011;858;53.190;8.596;2022-11-03T00:46:30;12.25;;;3.60;;
1721;SDS011;858;53.190;8.596;2022-11-03T00:48:59;7.50;;;3.30;;
1721;SDS011;858;53.190;8.596;2022-11-03T00:51:27;12.90;;;3.33;;
1721;SDS011;858;53.190;8.596;2022-11-03T00:53:55;13.40;;;3.38;;
1721;SDS011;858;53.190;8.596;2022-11-03T00:56:22;7.30;;;3.20;;
1721;SDS011;858;53.190;8.596;2022-11-03T00:58:49;10.90;;;3.25;;
1721;SDS011;858;53.190;8.596;2022-11-03T01:01:16;9.50;;;3.20;;
1721;SDS011;858;53.190;8.596;2022-11-03T01:03:44;10.10;;;3.40;;
1721;SDS011;858;53.190;8.596;2022-11-03T01:06:33;11.63;;;3.08;;
1721;SDS011;858;53.190;8.596;2022-11-03T01:09:25;8.57;;;2.77;;
1721;SDS011;858;53.190;8.596;2022-11-03T01:11:53;11.27;;;3.30;;
1721;SDS011;858;53.190;8.596;2022-11-03T01:14:21;7.18;;;2.83;;
1721;SDS011;858;53.190;8.596;2022-11-03T01:16:48;8.60;;;3.53;;
1721;SDS011;858;53.190;8.596;2022-11-03T01:19:15;11.37;;;3.50;;
1721;SDS011;858;53.190;8.596;2022-11-03T01:21:43;12.57;;;3.60;;
1721;SDS011;858;53.190;8.596;2022-11-03T01:24:09;11.88;;;3.53;;
1721;SDS011;858;53.190;8.596;2022-11-03T01:26:35;8.30;;;3.33;;
1721;SDS011;858;53.190;8.596;2022-11-03T01:29:02;10.13;;;3.63;;
1721;SDS011;858;53.190;8.596;2022-11-03T01:31:29;9.35;;;3.38;;
1721;SDS011;858;53.190;8.596;2022-11-03T01:33:56;12.00;;;3.42;;
1721;SDS011;858;53.190;8.596;2022-11-03T01:36:22;9.98;;;3.28;;
1721;SDS011;858;53.190;8.596;2022-11-03T01:38:50;10.05;;;3.03;;
1721;SDS011;858;53.190;8.596;2022-11-03T01:41:17;13.25;;;3.38;;
1721;SDS011;858;53.190;8.596;2022-11-03T01:43:45;9.95;;;3.25;;
1721;SDS011;858;53.190;8.596;2022-11-03T01:46:14;11.85;;;3.63;;
1721;SDS011;858;53.190;8.596;2022-11-03T01:48:42;11.27;;;4.30;;
1721;SDS011;858;53.190;8.596;2022-11-03T01:51:09;13.35;;;3.30;;
1721;SDS011;858;53.190;8.596;2022-11-03T01:53:37;13.68;;;3.75;;
1721;SDS011;858;53.190;8.596;2022-11-03T01:56:07;9.75;;;2.80;;
1721;SDS011;858;53.190;8.596;2022-11-03T01:58:36;11.10;;;3.42;;
1721;SDS011;858;53.190;8.596;2022-11-03T02:01:03;8.15;;;3.10;;
1721;SDS011;858;53.190;8.596;2022-11-03T02:03:30;10.50;;;3.30;;
1721;SDS011;858;53.190;8.596;2022-11-03T02:05:58;9.70;;;3.40;;
1721;SDS011;858;53.190;8.596;2022-11-03T02:08:25;10.85;;;2.97;;
1721;SDS011;858;53.190;8.596;2022-11-03T02:10:54;7.68;;;2.60;;
1721;SDS011;858;53.190;8.596;2022-11-03T02:13:24;12.10;;;3.30;;
1721;SDS011;858;53.190;8.596;2022-11-03T02:15:51;9.43;;;2.40;;
1721;SDS011;858;53.190;8.596;2022-11-03T02:18:19;10.10;;;3.03;;
1721;SDS011;858;53.190;8.596;2022-11-03T02:20:47;10.20;;;3.00;;
1721;SDS011;858;53.190;8.596;2022-11-03T02:23:21;9.82;;;2.88;;
1721;SDS011;858;53.190;8.596;2022-11-03T02:25:51;10.65;;;3.10;;
1721;SDS011;858;53.190;8.596;2022-11-03T02:28:19;9.95;;;2.97;;
1721;SDS011;858;53.190;8.596;2022-11-03T02:30:49;11.38;;;3.40;;
1721;SDS011;858;53.190;8.596;2022-11-03T02:33:32;12.40;;;3.10;;
1721;SDS011;858;53.190;8.596;2022-11-03T02:36:04;13.82;;;3.28;;
1721;SDS011;858;53.190;8.596;2022-11-03T02:38:32;15.57;;;3.30;;
1721;SDS011;858;53.190;8.596;2022-11-03T02:41:00;8.80;;;3.00;;
1721;SDS011;858;53.190;8.596;2022-11-03T02:43:28;7.30;;;2.75;;
1721;SDS011;858;53.190;8.596;2022-11-03T02:45:54;11.38;;;3.50;;
1721;SDS011;858;53.190;8.596;2022-11-03T02:48:21;10.70;;;3.10;;
1721;SDS011;858;53.190;8.596;2022-11-03T02:50:47;15.27;;;3.08;;
1721;SDS011;858;53.190;8.596;2022-11-03T02:53:14;11.70;;;2.97;;
1721;SDS011;858;53.190;8.596;2022-11-03T02:55:43;9.98;;;3.38;;
1721;SDS011;858;53.190;8.596;2022-11-03T02:58:14;11.30;;;3.10;;
1721;SDS011;858;53.190;8.596;2022-11-03T03:00:44;9.57;;;3.10;;
1721;SDS011;858;53.190;8.596;2022-11-03T03:03:15;13.75;;;3.60;;
1721;SDS011;858;53.190;8.596;2022-11-03T03:05:43;11.27;;;3.13;;
1721;SDS011;858;53.190;8.596;2022-11-03T03:08:10;11.38;;;3.15;;
1721;SDS011;858;53.190;8.596;2022-11-03T03:10:38;8.00;;;3.00;;
1721;SDS011;858;53.190;8.596;2022-11-03T03:13:05;18.13;;;3.40;;
1721;SDS011;858;53.190;8.596;2022-11-03T03:15:36;11.43;;;2.77;;
1721;SDS011;858;53.190;8.596;2022-11-03T03:18:08;6.20;;;2.90;;
1721;SDS011;858;53.190;8.596;2022-11-03T03:20:36;9.98;;;2.90;;
1721;SDS011;858;53.190;8.596;2022-11-03T03:23:06;10.25;;;2.80;;
1721;SDS011;858;53.190;8.596;2022-11-03T03:25:37;15.17;;;3.30;;
1721;SDS011;858;53.190;8.596;2022-11-03T03:28:06;11.02;;;2.92;;
1721;SDS011;858;53.190;8.596;2022-11-03T03:30:36;8.00;;;2.53;;
1721;SDS011;858;53.190;8.596;2022-11-03T03:33:04;7.00;;;2.70;;
1721;SDS011;858;53.190;8.596;2022-11-03T03:35:32;12.70;;;3.72;;
1721;SDS011;858;53.190;8.596;2022-11-03T03:38:00;11.45;;;3.00;;
1721;SDS011;858;53.190;8.596;2022-11-03T03:40:29;9.40;;;3.17;;
1721;SDS011;858;53.190;8.596;2022-11-03T03:42:56;8.65;;;3.10;;
1721;SDS011;858;53.190;8.596;2022-11-03T03:45:23;10.40;;;2.50;;
1721;SDS011;858;53.190;8.596;2022-11-03T03:47:52;13.32;;;3.58;;
1721;SDS011;858;53.190;8.596;2022-11-03T03:50:19;12.18;;;3.08;;
1721;SDS011;858;53.190;8.596;2022-11-03T03:52:47;11.05;;;3.08;;
1721;SDS011;858;53.190;8.596;2022-11-03T03:55:15;11.95;;;3.60;;
1721;SDS011;858;53.190;8.596;2022-11-03T03:57:42;10.40;;;3.00;;
1721;SDS011;858;53.190;8.596;2022-11-03T04:00:10;15.45;;;3.60;;
1721;SDS011;858;53.190;8.596;2022-11-03T04:02:39;12.32;;;3.38;;
1721;SDS011;858;53.190;8.596;2022-11-03T04:05:07;7.25;;;2.60;;
1721;SDS011;858;53.190;8.596;2022-11-03T04:07:34;11.07;;;3.20;;
1721;SDS011;858;53.190;8.596;2022-11-03T04:10:13;9.63;;;2.95;;
1721;SDS011;858;53.190;8.596;2022-11-03T04:12:40;13.63;;;2.90;;
1721;SDS011;858;53.190;8.596;2022-11-03T04:15:24;11.03;;;3.37;;
1721;SDS011;858;53.190;8.596;2022-11-03T04:18:08;9.70;;;2.93;;
1721;SDS011;858;53.190;8.596;2022-11-03T04:20:55;8.93;;;2.42;;
1721;SDS011;858;53.190;8.596;2022-11-03T04:23:38;9.85;;;2.70;;
1721;SDS011;858;53.190;8.596;2022-11-03T04:26:05;5.80;;;2.50;;
1721;SDS011;858;53.190;8.596;2022-11-03T04:28:35;9.70;;;3.50;;
1721;SDS011;858;53.190;8.596;2022-11-03T04:31:01;10.32;;;3.30;;
1721;SDS011;858;53.190;8.596;2022-11-03T04:33:28;10.10;;;3.07;;
1721;SDS011;858;53.190;8.596;2022-11-03T04:35:57;11.10;;;3.50;;
1721;SDS011;858;53.190;8.596;2022-11-03T04:38:24;11.83;;;3.27;;
1721;SDS011;858;53.190;8.596;2022-11-03T04:40:53;8.43;;;3.30;;
1721;SDS011;858;53.190;8.596;2022-11-03T04:43:20;12.15;;;3.13;;
1721;SDS011;858;53.190;8.596;2022-11-03T04:45:47;9.65;;;3.33;;
1721;SDS011;858;53.190;8.596;2022-11-03T04:48:14;6.65;;;2.70;;
1721;SDS011;858;53.190;8.596;2022-11-03T04:50:41;9.60;;;3.38;;
1721;SDS011;858;53.190;8.596;2022-11-03T04:53:10;12.35;;;2.90;;
1721;SDS011;858;53.190;8.596;2022-11-03T04:55:38;13.55;;;3.60;;
1721;SDS011;858;53.190;8.596;2022-11-03T04:58:06;10.82;;;3.00;;
1721;SDS011;858;53.190;8.596;2022-11-03T05:00:35;10.07;;;3.35;;
1721;SDS011;858;53.190;8.596;2022-11-03T05:03:02;14.27;;;3.40;;
1721;SDS011;858;53.190;8.596;2022-11-03T05:05:28;11.97;;;3.27;;
1721;SDS011;858;53.190;8.596;2022-11-03T05:07:55;8.02;;;2.90;;
1721;SDS011;858;53.190;8.596;2022-11-03T05:10:24;11.20;;;3.10;;
1721;SDS011;858;53.190;8.596;2022-11-03T05:12:50;12.82;;;3.40;;
1721;SDS011;858;53.190;8.596;2022-11-03T05:15:25;9.43;;;3.90;;
1721;SDS011;858;53.190;8.596;2022-11-03T05:17:52;10.80;;;3.70;;
1721;SDS011;858;53.190;8.596;2022-11-03T05:20:23;12.77;;;3.35;;
1721;SDS011;858;53.190;8.596;2022-11-03T05:22:51;10.27;;;3.35;;
1721;SDS011;858;53.190;8.596;2022-11-03T05:25:24;11.03;;;3.30;;
1721;SDS011;858;53.190;8.596;2022-11-03T05:27:53;15.75;;;3.60;;
1721;SDS011;858;53.190;8.596;2022-11-03T05:30:19;10.13;;;3.83;;
1721;SDS011;858;53.190;8.596;2022-11-03T05:32:46;13.37;;;3.70;;
1721;SDS011;858;53.190;8.596;2022-11-03T05:35:14;18.80;;;4.00;;
1721;SDS011;858;53.190;8.596;2022-11-03T05:37:44;8.25;;;3.33;;
1721;SDS011;858;53.190;8.596;2022-11-03T05:40:13;8.60;;;3.47;;
1721;SDS011;858;53.190;8.596;2022-11-03T05:42:42;15.02;;;4.20;;
1721;SDS011;858;53.190;8.596;2022-11-03T05:45:13;12.23;;;3.78;;
1721;SDS011;858;53.190;8.596;2022-11-03T05:47:41;10.80;;;3.20;;
1721;SDS011;858;53.190;8.596;2022-11-03T05:50:13;10.98;;;3.50;;
1721;SDS011;858;53.190;8.596;2022-11-03T05:52:41;9.95;;;3.80;;
1721;SDS011;858;53.190;8.596;2022-11-03T05:55:13;13.15;;;3.40;;
1721;SDS011;858;53.190;8.596;2022-11-03T05:57:43;12.35;;;3.30;;
1721;SDS011;858;53.190;8.596;2022-11-03T06:00:18;15.88;;;3.65;;
1721;SDS011;858;53.190;8.596;2022-11-03T06:02:46;12.02;;;4.00;;
1721;SDS011;858;53.190;8.596;2022-11-03T06:05:16;12.18;;;3.70;;
1721;SDS011;858;53.190;8.596;2022-11-03T06:07:43;10.60;;;3.85;;
1721;SDS011;858;53.190;8.596;2022-11-03T06:10:19;12.18;;;3.70;;
1721;SDS011;858;53.190;8.596;2022-11-03T06:12:48;11.45;;;3.60;;
1721;SDS011;858;53.190;8.596;2022-11-03T06:15:21;16.13;;;3.92;;
1721;SDS011;858;53.190;8.596;2022-11-03T06:17:49;11.27;;;3.20;;
1721;SDS011;858;53.190;8.596;2022-11-03T06:20:17;14.65;;;3.22;;
1721;SDS011;858;53.190;8.596;2022-11-03T06:22:46;11.38;;;3.55;;
1721;SDS011;858;53.190;8.596;2022-11-03T06:25:15;14.63;;;3.90;;
1721;SDS011;858;53.190;8.596;2022-11-03T06:27:46;5.00;;;2.90;;
1721;SDS011;858;53.190;8.596;2022-11-03T06:30:19;13.20;;;3.63;;
1721;SDS011;858;53.190;8.596;2022-11-03T06:32:46;11.00;;;4.30;;
1721;SDS011;858;53.190;8.596;2022-11-03T06:35:12;9.43;;;3.58;;
1721;SDS011;858;53.190;8.596;2022-11-03T06:37:39;9.95;;;3.30;;
1721;SDS011;858;53.190;8.596;2022-11-03T06:40:26;8.40;;;3.20;;
1721;SDS011;858;53.190;8.596;2022-11-03T06:42:54;12.63;;;3.47;;
1721;SDS011;858;53.190;8.596;2022-11-03T06:45:24;11.97;;;3.60;;
1721;SDS011;858;53.190;8.596;2022-11-03T06:47:51;10.68;;;3.20;;
1721;SDS011;858;53.190;8.596;2022-11-03T06:50:19;8.57;;;3.25;;
1721;SDS011;858;53.190;8.596;2022-11-03T06:52:47;14.77;;;3.50;;
1721;SDS011;858;53.190;8.596;2022-11-03T06:55:19;10.50;;;3.40;;
1721;SDS011;858;53.190;8.596;2022-11-03T06:57:48;10.63;;;3.20;;
1721;SDS011;858;53.190;8.596;2022-11-03T07:00:18;8.90;;;3.15;;
1721;SDS011;858;53.190;8.596;2022-11-03T07:02:51;10.35;;;3.50;;
1721;SDS011;858;53.190;8.596;2022-11-03T07:05:19;12.05;;;3.95;;
1721;SDS011;858;53.190;8.596;2022-11-03T07:07:46;11.13;;;4.05;;
1721;SDS011;858;53.190;8.596;2022-11-03T07:10:13;13.55;;;3.80;;
1721;SDS011;858;53.190;8.596;2022-11-03T07:12:40;10.20;;;3.33;;
1721;SDS011;858;53.190;8.596;2022-11-03T07:15:11;11.60;;;3.60;;
1721;SDS011;858;53.190;8.596;2022-11-03T07:17:42;7.95;;;3.30;;
1721;SDS011;858;53.190;8.596;2022-11-03T07:20:13;11.60;;;3.70;;
1721;SDS011;858;53.190;8.596;2022-11-03T07:22:40;11.27;;;4.10;;
1721;SDS011;858;53.190;8.596;2022-11-03T07:25:08;9.80;;;3.30;;
1721;SDS011;858;53.190;8.596;2022-11-03T07:27:39;13.53;;;4.23;;
1721;SDS011;858;53.190;8.596;2022-11-03T07:30:09;9.00;;;3.22;;
1721;SDS011;858;53.190;8.596;2022-11-03T07:32:39;11.73;;;3.75;;
1721;SDS011;858;53.190;8.596;2022-11-03T07:35:10;13.07;;;3.90;;
1721;SDS011;858;53.190;8.596;2022-11-03T07:37:42;10.55;;;3.50;;
1721;SDS011;858;53.190;8.596;2022-11-03T07:40:11;13.45;;;3.80;;
1721;SDS011;858;53.190;8.596;2022-11-03T07:42:40;15.20;;;3.60;;
1721;SDS011;858;53.190;8.596;2022-11-03T07:45:13;10.75;;;3.25;;
1721;SDS011;858;53.190;8.596;2022-11-03T07:47:56;9.27;;;3.15;;
1721;SDS011;858;53.190;8.596;2022-11-03T07:50:22;11.70;;;3.83;;
1721;SDS011;858;53.190;8.596;2022-11-03T07:52:50;11.73;;;3.83;;
1721;SDS011;858;53.190;8.596;2022-11-03T07:55:16;10.27;;;3.28;;
1721;SDS011;858;53.190;8.596;2022-11-03T07:57:43;11.30;;;3.40;;
1721;SDS011;858;53.190;8.596;2022-11-03T08:00:10;6.80;;;3.55;;
1721;SDS011;858;53.190;8.596;2022-11-03T08:02:45;14.38;;;3.72;;
1721;SDS011;858;53.190;8.596;2022-11-03T08:05:12;12.07;;;4.03;;
1721;SDS011;858;53.190;8.596;2022-11-03T08:07:39;12.73;;;3.85;;
1721;SDS011;858;53.190;8.596;2022-11-03T08:10:07;11.80;;;3.78;;
1721;SDS011;858;53.190;8.596;2022-11-03T08:12:34;10.98;;;3.90;;
1721;SDS011;858;53.190;8.596;2022-11-03T08:15:00;10.20;;;3.90;;
1721;SDS011;858;53.190;8.596;2022-11-03T08:17:26;7.40;;;3.40;;
1721;SDS011;858;53.190;8.596;2022-11-03T08:19:53;14.32;;;4.00;;
1721;SDS011;858;53.190;8.596;2022-11-03T08:22:19;7.07;;;3.70;;
1721;SDS011;858;53.190;8.596;2022-11-03T08:24:47;12.45;;;4.15;;
1721;SDS011;858;53.190;8.596;2022-11-03T08:27:15;9.18;;;3.30;;
1721;SDS011;858;53.190;8.596;2022-11-03T08:29:41;14.63;;;3.35;;
1721;SDS011;858;53.190;8.596;2022-11-03T08:32:07;8.40;;;4.00;;
1721;SDS011;858;53.190;8.596;2022-11-03T08:34:34;12.35;;;3.80;;
1721;SDS011;858;53.190;8.596;2022-11-03T08:37:00;11.32;;;3.83;;
1721;SDS011;858;53.190;8.596;2022-11-03T08:39:27;11.93;;;3.60;;
1721;SDS011;858;53.190;8.596;2022-11-03T08:41:55;12.57;;;3.40;;
1721;SDS011;858;53.190;8.596;2022-11-03T08:44:23;11.35;;;3.35;;
1721;SDS011;858;53.190;8.596;2022-11-03T08:46:50;7.85;;;3.05;;
1721;SDS011;858;53.190;8.596;2022-11-03T08:49:16;8.15;;;3.45;;
1721;SDS011;858;53.190;8.596;2022-11-03T08:51:43;11.40;;;3.10;;
1721;SDS011;858;53.190;8.596;2022-11-03T08:54:09;12.80;;;3.55;;
1721;SDS011;858;53.190;8.596;2022-11-03T08:56:36;10.48;;;3.20;;
1721;SDS011;858;53.190;8.596;2022-11-03T08:59:02;13.35;;;3.85;;
1721;SDS011;858;53.190;8.596;2022-11-03T09:01:31;8.03;;;3.20;;
1721;SDS011;858;53.190;8.596;2022-11-03T09:03:57;9.43;;;3.40;;
1721;SDS011;858;53.190;8.596;2022-11-03T09:06:23;8.95;;;3.40;;
1721;SDS011;858;53.190;8.596;2022-11-03T09:08:50;12.23;;;3.70;;
1721;SDS011;858;53.190;8.596;2022-11-03T09:11:16;9.48;;;3.10;;
1721;SDS011;858;53.190;8.596;2022-11-03T09:13:43;13.82;;;3.78;;
1721;SDS011;858;53.190;8.596;2022-11-03T09:16:09;11.00;;;3.60;;
1721;SDS011;858;53.190;8.596;2022-11-03T09:18:37;11.55;;;3.70;;
1721;SDS011;858;53.190;8.596;2022-11-03T09:21:04;9.50;;;3.08;;
1721;SDS011;858;53.190;8.596;2022-11-03T09:23:30;9.97;;;3.20;;
1721;SDS011;858;53.190;8.596;2022-11-03T09:25:56;9.02;;;3.70;;
1721;SDS011;858;53.190;8.596;2022-11-03T09:28:23;8.90;;;3.60;;
1721;SDS011;858;53.190;8.596;2022-11-03T09:30:49;9.60;;;3.20;;
1721;SDS011;858;53.190;8.596;2022-11-03T09:33:15;12.85;;;3.60;;
1721;SDS011;858;53.190;8.596;2022-11-03T09:35:43;8.45;;;3.50;;
1721;SDS011;858;53.190;8.596;2022-11-03T09:38:09;11.07;;;4.07;;
1721;SDS011;858;53.190;8.596;2022-11-03T09:40:36;10.38;;;3.30;;
1721;SDS011;858;53.190;8.596;2022-11-03T09:43:02;10.95;;;4.00;;
1721;SDS011;858;53.190;8.596;2022-11-03T09:45:29;9.93;;;3.50;;
1721;SDS011;858;53.190;8.596;2022-11-03T09:47:55;12.53;;;3.47;;
1721;SDS011;858;53.190;8.596;2022-11-03T09:50:22;12.40;;;3.72;;
1721;SDS011;858;53.190;8.596;2022-11-03T09:52:49;11.50;;;3.42;;
1721;SDS011;858;53.190;8.596;2022-11-03T09:55:20;12.40;;;3.70;;
1721;SDS011;858;53.190;8.596;2022-11-03T09:57:48;10.30;;;3.63;;
1721;SDS011;858;53.190;8.596;2022-11-03T10:00:15;13.23;;;3.60;;
1721;SDS011;858;53.190;8.596;2022-11-03T10:02:42;12.40;;;3.33;;
1721;SDS011;858;53.190;8.596;2022-11-03T10:05:11;8.65;;;3.70;;
1721;SDS011;858;53.190;8.596;2022-11-03T10:07:38;10.70;;;3.30;;
1721;SDS011;858;53.190;8.596;2022-11-03T10:10:12;11.63;;;3.55;;
1721;SDS011;858;53.190;8.596;2022-11-03T10:12:40;8.57;;;3.20;;
1721;SDS011;858;53.190;8.596;2022-11-03T10:15:08;8.63;;;3.50;;
1721;SDS011;858;53.190;8.596;2022-11-03T10:17:38;11.40;;;3.65;;
1721;SDS011;858;53.190;8.596;2022-11-03T10:20:05;10.23;;;2.90;;
1721;SDS011;858;53.190;8.596;2022-11-03T10:22:32;9.25;;;3.20;;
1721;SDS011;858;53.190;8.596;2022-11-03T10:27:45;8.88;;;2.83;;
1721;SDS011;858;53.190;8.596;2022-11-03T10:30:11;10.50;;;3.17;;
1721;SDS011;858;53.190;8.596;2022-11-03T10:32:38;7.43;;;2.60;;
1721;SDS011;858;53.190;8.596;2022-11-03T10:35:30;9.20;;;3.70;;
1721;SDS011;858;53.190;8.596;2022-11-03T10:37:57;11.25;;;3.50;;
1721;SDS011;858;53.190;8.596;2022-11-03T10:40:33;7.82;;;3.15;;
1721;SDS011;858;53.190;8.596;2022-11-03T10:43:01;7.18;;;2.88;;
1721;SDS011;858;53.190;8.596;2022-11-03T10:45:27;6.37;;;2.90;;
1721;SDS011;858;53.190;8.596;2022-11-03T10:47:58;8.38;;;3.28;;
1721;SDS011;858;53.190;8.596;2022-11-03T10:50:26;7.45;;;3.20;;
1721;SDS011;858;53.190;8.596;2022-11-03T10:52:52;8.23;;;3.30;;
1721;SDS011;858;53.190;8.596;2022-11-03T10:55:20;8.85;;;3.30;;
1721;SDS011;858;53.190;8.596;2022-11-03T10:57:47;10.15;;;3.17;;
1721;SDS011;858;53.190;8.596;2022-11-03T11:00:16;9.25;;;3.28;;
1721;SDS011;858;53.190;8.596;2022-11-03T11:02:43;7.10;;;3.30;;
1721;SDS011;858;53.190;8.596;2022-11-03T11:05:12;10.45;;;3.80;;
1721;SDS011;858;53.190;8.596;2022-11-03T11:07:39;8.77;;;3.40;;
1721;SDS011;858;53.190;8.596;2022-11-03T11:10:06;9.37;;;2.67;;
1721;SDS011;858;53.190;8.596;2022-11-03T11:12:33;10.88;;;3.40;;
1721;SDS011;858;53.190;8.596;2022-11-03T11:15:00;9.30;;;3.33;;
1721;SDS011;858;53.190;8.596;2022-11-03T11:17:45;6.93;;;3.20;;
1721;SDS011;858;53.190;8.596;2022-11-03T11:20:30;12.07;;;3.25;;
1721;SDS011;858;53.190;8.596;2022-11-03T11:26:04;10.50;;;3.13;;
1721;SDS011;858;53.190;8.596;2022-11-03T11:28:31;9.48;;;3.17;;
1721;SDS011;858;53.190;8.596;2022-11-03T11:30:57;8.10;;;3.15;;
1721;SDS011;858;53.190;8.596;2022-11-03T11:33:26;8.98;;;3.20;;
1721;SDS011;858;53.190;8.596;2022-11-03T11:46:46;9.25;;;3.30;;
1721;SDS011;858;53.190;8.596;2022-11-03T11:49:17;7.87;;;2.70;;
1721;SDS011;858;53.190;8.596;2022-11-03T11:51:44;11.02;;;3.22;;
1721;SDS011;858;53.190;8.596;2022-11-03T11:54:12;8.05;;;3.13;;
1721;SDS011;858;53.190;8.596;2022-11-03T11:56:40;8.80;;;3.07;;
1721;SDS011;858;53.190;8.596;2022-11-03T11:59:11;8.35;;;3.80;;
1721;SDS011;858;53.190;8.596;2022-11-03T12:01:39;13.88;;;3.20;;
1721;SDS011;858;53.190;8.596;2022-11-03T12:04:13;7.15;;;3.10;;
1721;SDS011;858;53.190;8.596;2022-11-03T12:06:41;10.30;;;3.15;;
1721;SDS011;858;53.190;8.596;2022-11-03T12:09:14;10.60;;;3.50;;
1721;SDS011;858;53.190;8.596;2022-11-03T12:11:41;9.23;;;3.25;;
1721;SDS011;858;53.190;8.596;2022-11-03T12:14:20;8.55;;;3.00;;
1721;SDS011;858;53.190;8.596;2022-11-03T12:16:47;6.05;;;2.95;;
1721;SDS011;858;53.190;8.596;2022-11-03T12:21:59;9.20;;;3.10;;
1721;SDS011;858;53.190;8.596;2022-11-03T12:24:33;12.52;;;3.28;;
1721;SDS011;858;53.190;8.596;2022-11-03T12:27:01;11.20;;;3.30;;
1721;SDS011;858;53.190;8.596;2022-11-03T12:29:28;10.27;;;3.50;;
1721;SDS011;858;53.190;8.596;2022-11-03T12:31:54;6.82;;;3.17;;
1721;SDS011;858;53.190;8.596;2022-11-03T12:34:22;5.65;;;2.85;;
1721;SDS011;858;53.190;8.596;2022-11-03T12:36:48;8.02;;;3.03;;
1721;SDS011;858;53.190;8.596;2022-11-03T12:39:16;7.13;;;3.00;;
1721;SDS011;858;53.190;8.596;2022-11-03T12:41:42;10.38;;;2.90;;
1721;SDS011;858;53.190;8.596;2022-11-03T12:44:10;7.55;;;3.10;;
1721;SDS011;858;53.190;8.596;2022-11-03T12:46:36;12.40;;;3.05;;
1721;SDS011;858;53.190;8.596;2022-11-03T12:49:03;7.65;;;3.17;;
1721;SDS011;858;53.190;8.596;2022-11-03T12:51:29;7.35;;;2.83;;
1721;SDS011;858;53.190;8.596;2022-11-03T12:53:56;8.30;;;2.72;;
1721;SDS011;858;53.190;8.596;2022-11-03T12:56:23;7.85;;;2.95;;
1721;SDS011;858;53.190;8.596;2022-11-03T12:58:50;4.90;;;3.00;;
1721;SDS011;858;53.190;8.596;2022-11-03T13:01:16;7.90;;;3.20;;
1721;SDS011;858;53.190;8.596;2022-11-03T13:03:43;7.97;;;3.10;;
1721;SDS011;858;53.190;8.596;2022-11-03T13:06:10;9.15;;;3.20;;
1721;SDS011;858;53.190;8.596;2022-11-03T13:08:38;9.38;;;3.30;;
1721;SDS011;858;53.190;8.596;2022-11-03T13:11:05;7.10;;;3.03;;
1721;SDS011;858;53.190;8.596;2022-11-03T13:13:53;8.20;;;3.03;;
1721;SDS011;858;53.190;8.596;2022-11-03T13:16:20;12.32;;;3.10;;
1721;SDS011;858;53.190;8.596;2022-11-03T13:18:46;9.30;;;3.20;;
1721;SDS011;858;53.190;8.596;2022-11-03T13:21:13;11.27;;;3.60;;
1721;SDS011;858;53.190;8.596;2022-11-03T13:23:40;8.67;;;3.10;;
1721;SDS011;858;53.190;8.596;2022-11-03T13:26:07;7.20;;;2.80;;
1721;SDS011;858;53.190;8.596;2022-11-03T13:28:33;8.10;;;2.80;;
1721;SDS011;858;53.190;8.596;2022-11-03T13:31:01;7.80;;;3.58;;
1721;SDS011;858;53.190;8.596;2022-11-03T13:33:28;10.27;;;3.07;;
1721;SDS011;858;53.190;8.596;2022-11-03T13:35:54;9.18;;;3.30;;
1721;SDS011;858;53.190;8.596;2022-11-03T13:38:21;8.23;;;3.38;;
1721;SDS011;858;53.190;8.596;2022-11-03T13:40:47;9.18;;;3.08;;
1721;SDS011;858;53.190;8.596;2022-11-03T13:43:15;10.15;;;3.85;;
1721;SDS011;858;53.190;8.596;2022-11-03T13:45:41;7.15;;;3.10;;
1721;SDS011;858;53.190;8.596;2022-11-03T13:48:09;8.98;;;3.08;;
1721;SDS011;858;53.190;8.596;2022-11-03T13:50:36;11.13;;;3.20;;
1721;SDS011;858;53.190;8.596;2022-11-03T13:53:02;8.00;;;2.63;;
1721;SDS011;858;53.190;8.596;2022-11-03T13:55:29;9.07;;;3.80;;
1721;SDS011;858;53.190;8.596;2022-11-03T13:57:55;11.05;;;3.30;;
1721;SDS011;858;53.190;8.596;2022-11-03T14:00:24;8.10;;;3.03;;
1721;SDS011;858;53.190;8.596;2022-11-03T14:02:50;8.20;;;3.40;;
1721;SDS011;858;53.190;8.596;2022-11-03T14:05:18;7.80;;;3.28;;
1721;SDS011;858;53.190;8.596;2022-11-03T14:07:45;9.18;;;3.45;;
1721;SDS011;858;53.190;8.596;2022-11-03T14:10:12;13.15;;;4.20;;
1721;SDS011;858;53.190;8.596;2022-11-03T14:12:38;11.73;;;4.50;;
1721;SDS011;858;53.190;8.596;2022-11-03T14:15:04;14.10;;;4.80;;
1721;SDS011;858;53.190;8.596;2022-11-03T14:17:31;11.80;;;5.15;;
1721;SDS011;858;53.190;8.596;2022-11-03T14:19:58;12.37;;;4.47;;
1721;SDS011;858;53.190;8.596;2022-11-03T14:22:25;10.52;;;4.97;;
1721;SDS011;858;53.190;8.596;2022-11-03T14:24:52;10.88;;;4.97;;
1721;SDS011;858;53.190;8.596;2022-11-03T14:27:18;17.45;;;5.53;;
1721;SDS011;858;53.190;8.596;2022-11-03T14:29:44;12.55;;;4.97;;
1721;SDS011;858;53.190;8.596;2022-11-03T14:32:13;15.88;;;5.05;;
1721;SDS011;858;53.190;8.596;2022-11-03T14:34:40;16.42;;;5.30;;
1721;SDS011;858;53.190;8.596;2022-11-03T14:37:09;13.90;;;5.65;;
1721;SDS011;858;53.190;8.596;2022-11-03T14:39:37;12.80;;;5.72;;
1721;SDS011;858;53.190;8.596;2022-11-03T14:42:04;15.13;;;5.75;;
1721;SDS011;858;53.190;8.596;2022-11-03T14:44:30;15.60;;;6.20;;
1721;SDS011;858;53.190;8.596;2022-11-03T14:46:57;13.48;;;5.40;;
1721;SDS011;858;53.190;8.596;2022-11-03T14:49:25;14.18;;;4.88;;
1721;SDS011;858;53.190;8.596;2022-11-03T14:51:52;12.23;;;4.53;;
1721;SDS011;858;53.190;8.596;2022-11-03T14:54:18;9.60;;;4.30;;
1721;SDS011;858;53.190;8.596;2022-11-03T14:56:46;10.73;;;4.60;;
1721;SDS011;858;53.190;8.596;2022-11-03T14:59:12;11.15;;;4.65;;
1721;SDS011;858;53.190;8.596;2022-11-03T15:01:39;16.38;;;4.93;;
1721;SDS011;858;53.190;8.596;2022-11-03T15:04:06;11.38;;;4.82;;
1721;SDS011;858;53.190;8.596;2022-11-03T15:06:33;14.35;;;5.13;;
1721;SDS011;858;53.190;8.596;2022-11-03T15:08:59;17.10;;;5.75;;
1721;SDS011;858;53.190;8.596;2022-11-03T15:11:26;16.38;;;5.53;;
1721;SDS011;858;53.190;8.596;2022-11-03T15:13:54;15.50;;;5.45;;
1721;SDS011;858;53.190;8.596;2022-11-03T15:16:20;11.40;;;4.85;;
1721;SDS011;858;53.190;8.596;2022-11-03T15:18:47;13.60;;;4.70;;
1721;SDS011;858;53.190;8.596;2022-11-03T15:21:13;16.60;;;5.03;;
1721;SDS011;858;53.190;8.596;2022-11-03T15:23:40;11.98;;;5.18;;
1721;SDS011;858;53.190;8.596;2022-11-03T15:26:06;14.48;;;4.78;;
1721;SDS011;858;53.190;8.596;2022-11-03T15:28:33;9.40;;;4.80;;
1721;SDS011;858;53.190;8.596;2022-11-03T15:31:01;11.20;;;4.60;;
1721;SDS011;858;53.190;8.596;2022-11-03T15:33:27;8.43;;;4.30;;
1721;SDS011;858;53.190;8.596;2022-11-03T15:35:54;18.98;;;5.80;;
1721;SDS011;858;53.190;8.596;2022-11-03T15:38:20;20.40;;;6.90;;
1721;SDS011;858;53.190;8.596;2022-11-03T15:40:47;20.00;;;7.50;;
1721;SDS011;858;53.190;8.596;2022-11-03T15:43:13;20.92;;;8.30;;
1721;SDS011;858;53.190;8.596;2022-11-03T15:45:40;21.52;;;7.07;;
1721;SDS011;858;53.190;8.596;2022-11-03T15:48:08;16.25;;;6.50;;